sensor_id;sensor_type;location;lat;lon;timestamp;P1;durP1;ratioP1;P2;durP2;ratioP2
64633;SDS011;51043;52.406;9.690;2023-04-01T00:01:46;7.60;;;2.20;;
64633;SDS011;51043;52.406;9.690;2023-04-01T00:04:14;8.03;;;2.33;;
64633;SDS011;51043;52.406;9.690;2023-04-01T00:06:41;7.93;;;2.13;;
64633;SDS011;51043;52.406;9.690;2023-04-01T00:09:08;8.27;;;2.10;;
64633;SDS011;51043;52.406;9.690;2023-04-01T00:11:35;4.77;;;2.23;;
64633;SDS011;51043;52.406;9.690;2023-04-01T00:14:02;5.77;;;2.00;;
64633;SDS011;51043;52.406;9.690;2023-04-01T00:16:29;8.03;;;2.20;;
64633;SDS011;51043;52.406;9.690;2023-04-01T00:18:56;4.43;;;2.10;;
64633;SDS011;51043;52.406;9.690;2023-04-01T00:21:23;10.43;;;2.60;;
64633;SDS011;51043;52.406;9.690;2023-04-01T00:23:50;7.67;;;1.93;;
64633;SDS011;51043;52.406;9.690;2023-04-01T00:26:17;5.83;;;1.87;;
64633;SDS011;51043;52.406;9.690;2023-04-01T00:28:47;6.37;;;1.80;;
64633;SDS011;51043;52.406;9.690;2023-04-01T00:31:18;6.93;;;2.30;;
64633;SDS011;51043;52.406;9.690;2023-04-01T00:33:45;4.63;;;1.80;;
64633;SDS011;51043;52.406;9.690;2023-04-01T00:36:14;8.00;;;2.03;;
64633;SDS011;51043;52.406;9.690;2023-04-01T00:38:43;5.90;;;2.00;;
64633;SDS011;51043;52.406;9.690;2023-04-01T00:41:12;7.13;;;2.20;;
64633;SDS011;51043;52.406;9.690;2023-04-01T00:43:41;10.70;;;1.93;;
64633;SDS011;51043;52.406;9.690;2023-04-01T00:46:10;6.40;;;1.80;;
64633;SDS011;51043;52.406;9.690;2023-04-01T00:48:46;6.13;;;1.90;;
64633;SDS011;51043;52.406;9.690;2023-04-01T00:51:18;9.60;;;2.10;;
64633;SDS011;51043;52.406;9.690;2023-04-01T00:53:52;5.13;;;1.80;;
64633;SDS011;51043;52.406;9.690;2023-04-01T00:56:22;7.80;;;2.10;;
64633;SDS011;51043;52.406;9.690;2023-04-01T00:59:02;6.87;;;1.93;;
64633;SDS011;51043;52.406;9.690;2023-04-01T01:01:32;7.10;;;2.20;;
64633;SDS011;51043;52.406;9.690;2023-04-01T01:04:00;6.00;;;2.10;;
64633;SDS011;51043;52.406;9.690;2023-04-01T01:09:10;5.33;;;1.70;;
64633;SDS011;51043;52.406;9.690;2023-04-01T01:11:44;7.13;;;1.70;;
64633;SDS011;51043;52.406;9.690;2023-04-01T01:14:40;7.60;;;1.80;;
64633;SDS011;51043;52.406;9.690;2023-04-01T01:17:30;5.17;;;1.60;;
64633;SDS011;51043;52.406;9.690;2023-04-01T01:20:29;2.63;;;1.67;;
64633;SDS011;51043;52.406;9.690;2023-04-01T01:23:07;4.93;;;1.70;;
64633;SDS011;51043;52.406;9.690;2023-04-01T01:25:40;4.40;;;1.57;;
64633;SDS011;51043;52.406;9.690;2023-04-01T01:31:15;5.43;;;1.63;;
64633;SDS011;51043;52.406;9.690;2023-04-01T01:36:33;6.73;;;1.73;;
64633;SDS011;51043;52.406;9.690;2023-04-01T01:39:06;4.30;;;1.43;;
64633;SDS011;51043;52.406;9.690;2023-04-01T01:41:35;6.33;;;1.73;;
64633;SDS011;51043;52.406;9.690;2023-04-01T01:44:06;4.90;;;1.63;;
64633;SDS011;51043;52.406;9.690;2023-04-01T01:46:35;4.97;;;1.70;;
64633;SDS011;51043;52.406;9.690;2023-04-01T01:49:04;7.07;;;1.83;;
64633;SDS011;51043;52.406;9.690;2023-04-01T01:51:34;6.60;;;1.83;;
64633;SDS011;51043;52.406;9.690;2023-04-01T01:54:03;5.20;;;1.63;;
64633;SDS011;51043;52.406;9.690;2023-04-01T01:56:30;4.23;;;1.63;;
64633;SDS011;51043;52.406;9.690;2023-04-01T01:59:02;5.47;;;1.87;;
64633;SDS011;51043;52.406;9.690;2023-04-01T02:01:32;5.70;;;1.60;;
64633;SDS011;51043;52.406;9.690;2023-04-01T02:04:09;5.93;;;1.70;;
64633;SDS011;51043;52.406;9.690;2023-04-01T02:06:41;3.50;;;1.60;;
64633;SDS011;51043;52.406;9.690;2023-04-01T02:09:12;5.13;;;1.70;;
64633;SDS011;51043;52.406;9.690;2023-04-01T02:11:41;7.63;;;1.63;;
64633;SDS011;51043;52.406;9.690;2023-04-01T02:14:39;4.10;;;1.50;;
64633;SDS011;51043;52.406;9.690;2023-04-01T02:17:18;7.33;;;1.80;;
64633;SDS011;51043;52.406;9.690;2023-04-01T02:19:52;7.27;;;2.30;;
64633;SDS011;51043;52.406;9.690;2023-04-01T02:22:28;5.47;;;1.70;;
64633;SDS011;51043;52.406;9.690;2023-04-01T02:24:59;5.13;;;1.90;;
64633;SDS011;51043;52.406;9.690;2023-04-01T02:27:34;5.07;;;2.00;;
64633;SDS011;51043;52.406;9.690;2023-04-01T02:30:01;5.40;;;1.63;;
64633;SDS011;51043;52.406;9.690;2023-04-01T02:32:29;6.83;;;1.83;;
64633;SDS011;51043;52.406;9.690;2023-04-01T02:34:59;5.03;;;1.53;;
64633;SDS011;51043;52.406;9.690;2023-04-01T02:37:29;3.10;;;1.67;;
64633;SDS011;51043;52.406;9.690;2023-04-01T02:40:04;6.87;;;1.60;;
64633;SDS011;51043;52.406;9.690;2023-04-01T02:42:33;3.53;;;1.50;;
64633;SDS011;51043;52.406;9.690;2023-04-01T02:45:01;7.10;;;1.73;;
64633;SDS011;51043;52.406;9.690;2023-04-01T02:47:28;5.67;;;1.67;;
64633;SDS011;51043;52.406;9.690;2023-04-01T02:49:55;5.13;;;1.70;;
64633;SDS011;51043;52.406;9.690;2023-04-01T02:52:24;3.07;;;1.50;;
64633;SDS011;51043;52.406;9.690;2023-04-01T02:54:52;5.17;;;1.57;;
64633;SDS011;51043;52.406;9.690;2023-04-01T02:57:20;4.03;;;1.50;;
64633;SDS011;51043;52.406;9.690;2023-04-01T02:59:47;4.20;;;1.53;;
64633;SDS011;51043;52.406;9.690;2023-04-01T03:02:14;4.50;;;1.93;;
64633;SDS011;51043;52.406;9.690;2023-04-01T03:04:42;5.33;;;1.50;;
64633;SDS011;51043;52.406;9.690;2023-04-01T03:07:09;4.63;;;1.40;;
64633;SDS011;51043;52.406;9.690;2023-04-01T03:09:37;6.10;;;1.50;;
64633;SDS011;51043;52.406;9.690;2023-04-01T03:12:04;2.77;;;1.27;;
64633;SDS011;51043;52.406;9.690;2023-04-01T03:14:41;5.10;;;1.37;;
64633;SDS011;51043;52.406;9.690;2023-04-01T03:17:08;5.13;;;1.43;;
64633;SDS011;51043;52.406;9.690;2023-04-01T03:19:34;4.60;;;1.60;;
64633;SDS011;51043;52.406;9.690;2023-04-01T03:22:05;3.37;;;1.40;;
64633;SDS011;51043;52.406;9.690;2023-04-01T03:24:32;5.10;;;1.70;;
64633;SDS011;51043;52.406;9.690;2023-04-01T03:26:59;4.27;;;1.60;;
64633;SDS011;51043;52.406;9.690;2023-04-01T03:29:26;5.43;;;1.50;;
64633;SDS011;51043;52.406;9.690;2023-04-01T03:31:52;5.07;;;1.80;;
64633;SDS011;51043;52.406;9.690;2023-04-01T03:34:24;3.67;;;1.60;;
64633;SDS011;51043;52.406;9.690;2023-04-01T03:36:52;3.37;;;1.40;;
64633;SDS011;51043;52.406;9.690;2023-04-01T03:39:20;3.40;;;1.30;;
64633;SDS011;51043;52.406;9.690;2023-04-01T03:41:47;3.87;;;1.53;;
64633;SDS011;51043;52.406;9.690;2023-04-01T03:44:14;7.17;;;1.37;;
64633;SDS011;51043;52.406;9.690;2023-04-01T03:46:41;3.93;;;1.43;;
64633;SDS011;51043;52.406;9.690;2023-04-01T03:49:08;2.60;;;1.37;;
64633;SDS011;51043;52.406;9.690;2023-04-01T03:51:38;3.23;;;1.43;;
64633;SDS011;51043;52.406;9.690;2023-04-01T03:54:06;7.87;;;1.60;;
64633;SDS011;51043;52.406;9.690;2023-04-01T03:56:33;4.00;;;1.40;;
64633;SDS011;51043;52.406;9.690;2023-04-01T03:59:04;7.73;;;2.00;;
64633;SDS011;51043;52.406;9.690;2023-04-01T04:01:32;5.50;;;1.60;;
64633;SDS011;51043;52.406;9.690;2023-04-01T04:03:59;5.87;;;1.90;;
64633;SDS011;51043;52.406;9.690;2023-04-01T04:06:27;3.40;;;1.60;;
64633;SDS011;51043;52.406;9.690;2023-04-01T04:08:54;5.43;;;1.50;;
64633;SDS011;51043;52.406;9.690;2023-04-01T04:11:21;6.10;;;1.60;;
64633;SDS011;51043;52.406;9.690;2023-04-01T04:13:50;3.80;;;1.50;;
64633;SDS011;51043;52.406;9.690;2023-04-01T04:16:19;7.33;;;2.10;;
64633;SDS011;51043;52.406;9.690;2023-04-01T04:18:52;3.53;;;1.60;;
64633;SDS011;51043;52.406;9.690;2023-04-01T04:21:20;4.23;;;1.53;;
64633;SDS011;51043;52.406;9.690;2023-04-01T04:23:47;6.33;;;2.00;;
64633;SDS011;51043;52.406;9.690;2023-04-01T04:26:16;6.00;;;1.73;;
64633;SDS011;51043;52.406;9.690;2023-04-01T04:28:50;4.60;;;1.77;;
64633;SDS011;51043;52.406;9.690;2023-04-01T04:31:18;5.40;;;1.70;;
64633;SDS011;51043;52.406;9.690;2023-04-01T04:33:47;5.60;;;1.60;;
64633;SDS011;51043;52.406;9.690;2023-04-01T04:36:15;8.17;;;1.70;;
64633;SDS011;51043;52.406;9.690;2023-04-01T04:38:42;6.50;;;1.63;;
64633;SDS011;51043;52.406;9.690;2023-04-01T04:41:12;3.13;;;1.70;;
64633;SDS011;51043;52.406;9.690;2023-04-01T04:43:48;4.50;;;1.77;;
64633;SDS011;51043;52.406;9.690;2023-04-01T04:46:21;6.37;;;1.97;;
64633;SDS011;51043;52.406;9.690;2023-04-01T04:48:54;5.80;;;1.67;;
64633;SDS011;51043;52.406;9.690;2023-04-01T04:51:25;4.87;;;1.97;;
64633;SDS011;51043;52.406;9.690;2023-04-01T04:53:52;4.30;;;1.60;;
64633;SDS011;51043;52.406;9.690;2023-04-01T04:56:31;7.70;;;1.80;;
64633;SDS011;51043;52.406;9.690;2023-04-01T04:59:03;7.43;;;1.80;;
64633;SDS011;51043;52.406;9.690;2023-04-01T05:01:41;3.27;;;1.60;;
64633;SDS011;51043;52.406;9.690;2023-04-01T05:04:08;2.97;;;1.40;;
64633;SDS011;51043;52.406;9.690;2023-04-01T05:06:35;3.53;;;2.40;;
64633;SDS011;51043;52.406;9.690;2023-04-01T05:09:02;4.00;;;1.80;;
64633;SDS011;51043;52.406;9.690;2023-04-01T05:11:29;5.77;;;1.77;;
64633;SDS011;51043;52.406;9.690;2023-04-01T05:13:56;3.97;;;1.53;;
64633;SDS011;51043;52.406;9.690;2023-04-01T05:16:23;4.73;;;1.70;;
64633;SDS011;51043;52.406;9.690;2023-04-01T05:18:50;3.07;;;1.53;;
64633;SDS011;51043;52.406;9.690;2023-04-01T05:21:17;4.70;;;1.83;;
64633;SDS011;51043;52.406;9.690;2023-04-01T05:23:44;2.60;;;1.43;;
64633;SDS011;51043;52.406;9.690;2023-04-01T05:26:12;4.87;;;1.60;;
64633;SDS011;51043;52.406;9.690;2023-04-01T05:28:41;5.27;;;1.70;;
64633;SDS011;51043;52.406;9.690;2023-04-01T05:31:09;4.80;;;1.87;;
64633;SDS011;51043;52.406;9.690;2023-04-01T05:33:41;5.80;;;1.63;;
64633;SDS011;51043;52.406;9.690;2023-04-01T05:36:13;9.63;;;2.00;;
64633;SDS011;51043;52.406;9.690;2023-04-01T05:38:41;4.77;;;2.00;;
64633;SDS011;51043;52.406;9.690;2023-04-01T05:41:11;7.00;;;2.00;;
64633;SDS011;51043;52.406;9.690;2023-04-01T05:43:41;5.50;;;2.00;;
64633;SDS011;51043;52.406;9.690;2023-04-01T05:46:27;6.93;;;1.83;;
64633;SDS011;51043;52.406;9.690;2023-04-01T05:49:14;4.23;;;1.70;;
64633;SDS011;51043;52.406;9.690;2023-04-01T05:51:41;6.67;;;1.80;;
64633;SDS011;51043;52.406;9.690;2023-04-01T05:54:08;3.73;;;1.80;;
64633;SDS011;51043;52.406;9.690;2023-04-01T05:56:37;3.23;;;1.77;;
64633;SDS011;51043;52.406;9.690;2023-04-01T05:59:04;4.87;;;1.73;;
64633;SDS011;51043;52.406;9.690;2023-04-01T06:01:31;3.50;;;1.70;;
64633;SDS011;51043;52.406;9.690;2023-04-01T06:03:58;4.47;;;1.70;;
64633;SDS011;51043;52.406;9.690;2023-04-01T06:06:26;6.37;;;1.87;;
64633;SDS011;51043;52.406;9.690;2023-04-01T06:09:07;6.63;;;2.07;;
64633;SDS011;51043;52.406;9.690;2023-04-01T06:32:36;5.37;;;1.67;;
64633;SDS011;51043;52.406;9.690;2023-04-01T06:34:51;5.80;;;1.70;;
64633;SDS011;51043;52.406;9.690;2023-04-01T06:43:16;5.33;;;1.90;;
64633;SDS011;51043;52.406;9.690;2023-04-01T06:52:50;6.17;;;1.93;;
64633;SDS011;51043;52.406;9.690;2023-04-01T06:55:56;2.47;;;1.60;;
64633;SDS011;51043;52.406;9.690;2023-04-01T06:58:50;5.23;;;2.00;;
64633;SDS011;51043;52.406;9.690;2023-04-01T07:01:21;2.63;;;1.60;;
64633;SDS011;51043;52.406;9.690;2023-04-01T07:03:53;4.40;;;1.90;;
64633;SDS011;51043;52.406;9.690;2023-04-01T07:06:28;3.70;;;1.53;;
64633;SDS011;51043;52.406;9.690;2023-04-01T07:09:02;4.57;;;1.90;;
64633;SDS011;51043;52.406;9.690;2023-04-01T07:12:11;6.40;;;1.70;;
64633;SDS011;51043;52.406;9.690;2023-04-01T07:15:34;4.73;;;2.30;;
64633;SDS011;51043;52.406;9.690;2023-04-01T07:18:14;6.13;;;2.07;;
64633;SDS011;51043;52.406;9.690;2023-04-01T07:20:54;5.60;;;2.03;;
64633;SDS011;51043;52.406;9.690;2023-04-01T07:23:28;6.30;;;2.10;;
64633;SDS011;51043;52.406;9.690;2023-04-01T07:26:16;4.87;;;2.10;;
64633;SDS011;51043;52.406;9.690;2023-04-01T07:28:59;4.63;;;2.07;;
64633;SDS011;51043;52.406;9.690;2023-04-01T07:34:21;4.40;;;1.87;;
64633;SDS011;51043;52.406;9.690;2023-04-01T07:39:36;3.00;;;1.80;;
64633;SDS011;51043;52.406;9.690;2023-04-01T07:45:15;5.50;;;2.17;;
64633;SDS011;51043;52.406;9.690;2023-04-01T07:48:30;3.40;;;1.63;;
64633;SDS011;51043;52.406;9.690;2023-04-01T07:53:44;1.97;;;1.50;;
64633;SDS011;51043;52.406;9.690;2023-04-01T07:56:17;3.90;;;1.50;;
64633;SDS011;51043;52.406;9.690;2023-04-01T08:05:22;4.63;;;2.50;;
64633;SDS011;51043;52.406;9.690;2023-04-01T08:20:26;3.10;;;1.60;;
64633;SDS011;51043;52.406;9.690;2023-04-01T08:23:12;3.93;;;2.50;;
64633;SDS011;51043;52.406;9.690;2023-04-01T08:25:48;4.70;;;2.30;;
64633;SDS011;51043;52.406;9.690;2023-04-01T08:28:26;4.27;;;2.00;;
64633;SDS011;51043;52.406;9.690;2023-04-01T08:31:12;4.67;;;1.50;;
64633;SDS011;51043;52.406;9.690;2023-04-01T08:33:44;3.43;;;1.40;;
64633;SDS011;51043;52.406;9.690;2023-04-01T08:36:17;1.73;;;1.13;;
64633;SDS011;51043;52.406;9.690;2023-04-01T08:39:11;4.27;;;1.40;;
64633;SDS011;51043;52.406;9.690;2023-04-01T08:42:04;2.07;;;1.13;;
64633;SDS011;51043;52.406;9.690;2023-04-01T08:48:19;2.90;;;1.50;;
64633;SDS011;51043;52.406;9.690;2023-04-01T08:56:55;2.03;;;1.30;;
64633;SDS011;51043;52.406;9.690;2023-04-01T09:09:01;2.00;;;1.30;;
64633;SDS011;51043;52.406;9.690;2023-04-01T09:17:58;2.20;;;1.40;;
64633;SDS011;51043;52.406;9.690;2023-04-01T09:20:50;1.13;;;0.90;;
64633;SDS011;51043;52.406;9.690;2023-04-01T09:31:46;0.90;;;0.90;;
64633;SDS011;51043;52.406;9.690;2023-04-01T09:37:58;1.37;;;0.90;;
64633;SDS011;51043;52.406;9.690;2023-04-01T09:40:55;1.23;;;0.90;;
64633;SDS011;51043;52.406;9.690;2023-04-01T09:49:59;1.43;;;1.10;;
64633;SDS011;51043;52.406;9.690;2023-04-01T09:53:07;1.83;;;1.27;;
64633;SDS011;51043;52.406;9.690;2023-04-01T09:56:01;2.17;;;1.93;;
64633;SDS011;51043;52.406;9.690;2023-04-01T10:07:51;1.80;;;1.27;;
64633;SDS011;51043;52.406;9.690;2023-04-01T10:10:47;2.07;;;1.10;;
64633;SDS011;51043;52.406;9.690;2023-04-01T10:14:17;1.10;;;1.00;;
64633;SDS011;51043;52.406;9.690;2023-04-01T10:23:01;1.70;;;1.30;;
64633;SDS011;51043;52.406;9.690;2023-04-01T10:43:33;1.63;;;1.00;;
64633;SDS011;51043;52.406;9.690;2023-04-01T10:46:24;0.80;;;0.80;;
64633;SDS011;51043;52.406;9.690;2023-04-01T10:58:29;2.10;;;1.00;;
64633;SDS011;51043;52.406;9.690;2023-04-01T11:04:57;2.43;;;1.40;;
64633;SDS011;51043;52.406;9.690;2023-04-01T11:08:02;2.47;;;1.57;;
64633;SDS011;51043;52.406;9.690;2023-04-01T11:17:26;2.33;;;1.40;;
64633;SDS011;51043;52.406;9.690;2023-04-01T11:23:11;1.80;;;1.07;;
64633;SDS011;51043;52.406;9.690;2023-04-01T11:31:54;2.40;;;1.30;;
64633;SDS011;51043;52.406;9.690;2023-04-01T11:37:40;1.30;;;0.90;;
64633;SDS011;51043;52.406;9.690;2023-04-01T11:52:59;1.97;;;1.50;;
64633;SDS011;51043;52.406;9.690;2023-04-01T11:55:49;1.43;;;1.27;;
64633;SDS011;51043;52.406;9.690;2023-04-01T12:04:00;3.87;;;2.13;;
64633;SDS011;51043;52.406;9.690;2023-04-01T12:06:54;2.57;;;1.90;;
64633;SDS011;51043;52.406;9.690;2023-04-01T12:12:38;2.57;;;1.30;;
64633;SDS011;51043;52.406;9.690;2023-04-01T12:15:30;1.93;;;0.97;;
64633;SDS011;51043;52.406;9.690;2023-04-01T12:20:59;1.60;;;1.23;;
64633;SDS011;51043;52.406;9.690;2023-04-01T12:23:35;1.70;;;1.30;;
64633;SDS011;51043;52.406;9.690;2023-04-01T12:29:36;2.10;;;1.60;;
64633;SDS011;51043;52.406;9.690;2023-04-01T12:35:01;1.60;;;1.10;;
64633;SDS011;51043;52.406;9.690;2023-04-01T12:37:52;2.07;;;1.23;;
64633;SDS011;51043;52.406;9.690;2023-04-01T12:40:43;2.50;;;1.60;;
64633;SDS011;51043;52.406;9.690;2023-04-01T12:43:28;1.92;;;1.02;;
64633;SDS011;51043;52.406;9.690;2023-04-01T12:46:31;2.65;;;1.30;;
64633;SDS011;51043;52.406;9.690;2023-04-01T12:52:18;1.77;;;1.30;;
64633;SDS011;51043;52.406;9.690;2023-04-01T13:06:57;2.95;;;1.70;;
64633;SDS011;51043;52.406;9.690;2023-04-01T13:15:31;2.00;;;1.20;;
64633;SDS011;51043;52.406;9.690;2023-04-01T13:29:32;2.43;;;1.43;;
64633;SDS011;51043;52.406;9.690;2023-04-01T13:43:08;1.73;;;1.20;;
64633;SDS011;51043;52.406;9.690;2023-04-01T13:51:55;1.77;;;1.33;;
64633;SDS011;51043;52.406;9.690;2023-04-01T14:04:23;1.50;;;1.30;;
64633;SDS011;51043;52.406;9.690;2023-04-01T14:07:14;2.17;;;1.13;;
64633;SDS011;51043;52.406;9.690;2023-04-01T14:10:11;2.10;;;1.13;;
64633;SDS011;51043;52.406;9.690;2023-04-01T14:21:43;1.20;;;1.10;;
64633;SDS011;51043;52.406;9.690;2023-04-01T14:29:55;4.03;;;1.10;;
64633;SDS011;51043;52.406;9.690;2023-04-01T14:33:01;1.30;;;1.20;;
64633;SDS011;51043;52.406;9.690;2023-04-01T14:38:51;1.87;;;1.20;;
64633;SDS011;51043;52.406;9.690;2023-04-01T14:41:46;1.00;;;1.00;;
64633;SDS011;51043;52.406;9.690;2023-04-01T14:49:42;1.10;;;1.10;;
64633;SDS011;51043;52.406;9.690;2023-04-01T14:52:30;1.07;;;1.07;;
64633;SDS011;51043;52.406;9.690;2023-04-01T14:55:00;1.20;;;1.10;;
64633;SDS011;51043;52.406;9.690;2023-04-01T14:57:37;3.27;;;1.10;;
64633;SDS011;51043;52.406;9.690;2023-04-01T15:00:13;1.40;;;1.30;;
64633;SDS011;51043;52.406;9.690;2023-04-01T15:02:52;1.57;;;1.43;;
64633;SDS011;51043;52.406;9.690;2023-04-01T15:08:56;1.30;;;1.20;;
64633;SDS011;51043;52.406;9.690;2023-04-01T15:31:38;1.40;;;1.30;;
64633;SDS011;51043;52.406;9.690;2023-04-01T15:39:51;1.20;;;1.10;;
64633;SDS011;51043;52.406;9.690;2023-04-01T15:59:28;2.73;;;1.30;;
64633;SDS011;51043;52.406;9.690;2023-04-01T16:07:43;1.93;;;1.50;;
64633;SDS011;51043;52.406;9.690;2023-04-01T16:13:21;1.57;;;1.30;;
64633;SDS011;51043;52.406;9.690;2023-04-01T16:16:13;2.07;;;1.40;;
64633;SDS011;51043;52.406;9.690;2023-04-01T16:21:51;1.60;;;1.50;;
64633;SDS011;51043;52.406;9.690;2023-04-01T16:27:12;2.13;;;1.87;;
64633;SDS011;51043;52.406;9.690;2023-04-01T16:32:54;1.47;;;1.37;;
64633;SDS011;51043;52.406;9.690;2023-04-01T16:35:43;1.40;;;1.30;;
64633;SDS011;51043;52.406;9.690;2023-04-01T16:38:26;3.43;;;1.43;;
64633;SDS011;51043;52.406;9.690;2023-04-01T16:49:27;1.60;;;1.50;;
64633;SDS011;51043;52.406;9.690;2023-04-01T16:52:04;2.27;;;1.60;;
64633;SDS011;51043;52.406;9.690;2023-04-01T16:54:45;2.57;;;1.50;;
64633;SDS011;51043;52.406;9.690;2023-04-01T16:57:21;1.53;;;1.40;;
64633;SDS011;51043;52.406;9.690;2023-04-01T16:59:55;1.50;;;1.40;;
64633;SDS011;51043;52.406;9.690;2023-04-01T17:02:30;3.03;;;2.10;;
64633;SDS011;51043;52.406;9.690;2023-04-01T17:05:11;1.60;;;1.50;;
64633;SDS011;51043;52.406;9.690;2023-04-01T17:16:15;2.87;;;1.40;;
64633;SDS011;51043;52.406;9.690;2023-04-01T17:19:01;1.60;;;1.50;;
64633;SDS011;51043;52.406;9.690;2023-04-01T17:21:44;1.60;;;1.50;;
64633;SDS011;51043;52.406;9.690;2023-04-01T17:24:31;2.00;;;1.80;;
64633;SDS011;51043;52.406;9.690;2023-04-01T17:27:05;1.67;;;1.57;;
64633;SDS011;51043;52.406;9.690;2023-04-01T17:35:19;2.97;;;2.03;;
64633;SDS011;51043;52.406;9.690;2023-04-01T17:41:16;1.93;;;1.60;;
64633;SDS011;51043;52.406;9.690;2023-04-01T17:49:41;1.97;;;1.60;;
64633;SDS011;51043;52.406;9.690;2023-04-01T17:52:36;2.57;;;1.80;;
64633;SDS011;51043;52.406;9.690;2023-04-01T18:03:55;1.90;;;1.70;;
64633;SDS011;51043;52.406;9.690;2023-04-01T18:15:08;2.27;;;1.73;;
64633;SDS011;51043;52.406;9.690;2023-04-01T18:17:52;3.10;;;2.03;;
64633;SDS011;51043;52.406;9.690;2023-04-01T18:20:44;1.90;;;1.80;;
64633;SDS011;51043;52.406;9.690;2023-04-01T18:23:31;2.57;;;2.00;;
64633;SDS011;51043;52.406;9.690;2023-04-01T18:26:20;2.83;;;1.90;;
64633;SDS011;51043;52.406;9.690;2023-04-01T18:28:59;2.43;;;2.10;;
64633;SDS011;51043;52.406;9.690;2023-04-01T18:31:44;2.93;;;2.03;;
64633;SDS011;51043;52.406;9.690;2023-04-01T18:34:38;3.33;;;2.10;;
64633;SDS011;51043;52.406;9.690;2023-04-01T18:37:21;2.13;;;1.93;;
64633;SDS011;51043;52.406;9.690;2023-04-01T18:40:20;3.10;;;1.83;;
64633;SDS011;51043;52.406;9.690;2023-04-01T18:43:12;2.20;;;2.00;;
64633;SDS011;51043;52.406;9.690;2023-04-01T18:48:32;2.20;;;2.00;;
64633;SDS011;51043;52.406;9.690;2023-04-01T18:53:53;3.10;;;2.10;;
64633;SDS011;51043;52.406;9.690;2023-04-01T18:56:35;3.57;;;2.17;;
64633;SDS011;51043;52.406;9.690;2023-04-01T18:59:05;3.67;;;2.50;;
64633;SDS011;51043;52.406;9.690;2023-04-01T19:04:47;4.53;;;2.50;;
64633;SDS011;51043;52.406;9.690;2023-04-01T19:07:39;2.77;;;2.20;;
64633;SDS011;51043;52.406;9.690;2023-04-01T19:18:45;3.10;;;2.80;;
64633;SDS011;51043;52.406;9.690;2023-04-01T19:21:53;2.97;;;2.67;;
64633;SDS011;51043;52.406;9.690;2023-04-01T19:24:55;4.77;;;3.10;;
64633;SDS011;51043;52.406;9.690;2023-04-01T19:27:35;4.00;;;2.93;;
64633;SDS011;51043;52.406;9.690;2023-04-01T19:33:05;4.90;;;2.80;;
64633;SDS011;51043;52.406;9.690;2023-04-01T19:35:49;4.93;;;2.70;;
64633;SDS011;51043;52.406;9.690;2023-04-01T19:38:30;5.13;;;2.90;;
64633;SDS011;51043;52.406;9.690;2023-04-01T19:41:23;3.33;;;2.73;;
64633;SDS011;51043;52.406;9.690;2023-04-01T19:44:21;4.60;;;3.00;;
64633;SDS011;51043;52.406;9.690;2023-04-01T19:46:51;4.90;;;2.40;;
64633;SDS011;51043;52.406;9.690;2023-04-01T19:58:00;6.93;;;2.90;;
64633;SDS011;51043;52.406;9.690;2023-04-01T20:11:18;4.47;;;3.40;;
64633;SDS011;51043;52.406;9.690;2023-04-01T20:17:01;4.93;;;3.53;;
64633;SDS011;51043;52.406;9.690;2023-04-01T20:19:39;7.40;;;4.03;;
64633;SDS011;51043;52.406;9.690;2023-04-01T20:22:28;5.33;;;4.20;;
64633;SDS011;51043;52.406;9.690;2023-04-01T20:27:53;5.83;;;3.60;;
64633;SDS011;51043;52.406;9.690;2023-04-01T20:30:38;5.07;;;3.57;;
64633;SDS011;51043;52.406;9.690;2023-04-01T20:42:00;8.90;;;4.50;;
64633;SDS011;51043;52.406;9.690;2023-04-01T20:56:15;4.80;;;3.50;;
64633;SDS011;51043;52.406;9.690;2023-04-01T21:00:03;5.80;;;3.90;;
64633;SDS011;51043;52.406;9.690;2023-04-01T21:07:24;6.13;;;4.43;;
64633;SDS011;51043;52.406;9.690;2023-04-01T21:15:27;5.97;;;4.77;;
64633;SDS011;51043;52.406;9.690;2023-04-01T21:20:58;10.03;;;5.30;;
64633;SDS011;51043;52.406;9.690;2023-04-01T21:23:38;10.40;;;5.10;;
64633;SDS011;51043;52.406;9.690;2023-04-01T21:29:25;7.43;;;5.20;;
64633;SDS011;51043;52.406;9.690;2023-04-01T21:37:57;10.63;;;4.37;;
64633;SDS011;51043;52.406;9.690;2023-04-01T21:43:20;9.13;;;5.00;;
64633;SDS011;51043;52.406;9.690;2023-04-01T21:46:24;7.80;;;4.80;;
64633;SDS011;51043;52.406;9.690;2023-04-01T21:52:08;11.20;;;4.90;;
64633;SDS011;51043;52.406;9.690;2023-04-01T21:54:50;9.47;;;5.33;;
64633;SDS011;51043;52.406;9.690;2023-04-01T22:06:19;5.53;;;4.30;;
64633;SDS011;51043;52.406;9.690;2023-04-01T22:09:11;6.93;;;4.40;;
64633;SDS011;51043;52.406;9.690;2023-04-01T22:11:48;5.43;;;3.60;;
64633;SDS011;51043;52.406;9.690;2023-04-01T22:14:41;6.37;;;4.73;;
64633;SDS011;51043;52.406;9.690;2023-04-01T22:17:28;9.23;;;4.20;;
64633;SDS011;51043;52.406;9.690;2023-04-01T22:20:13;8.73;;;5.00;;
64633;SDS011;51043;52.406;9.690;2023-04-01T22:23:02;8.70;;;5.23;;
64633;SDS011;51043;52.406;9.690;2023-04-01T22:25:59;7.50;;;5.30;;
64633;SDS011;51043;52.406;9.690;2023-04-01T22:28:43;6.67;;;4.87;;
64633;SDS011;51043;52.406;9.690;2023-04-01T22:31:22;10.93;;;5.67;;
64633;SDS011;51043;52.406;9.690;2023-04-01T22:34:00;8.47;;;5.50;;
64633;SDS011;51043;52.406;9.690;2023-04-01T22:36:49;9.57;;;5.10;;
64633;SDS011;51043;52.406;9.690;2023-04-01T22:47:36;10.77;;;5.80;;
64633;SDS011;51043;52.406;9.690;2023-04-01T22:50:40;12.67;;;5.53;;
64633;SDS011;51043;52.406;9.690;2023-04-01T22:53:17;14.20;;;5.77;;
64633;SDS011;51043;52.406;9.690;2023-04-01T22:55:59;14.33;;;5.90;;
64633;SDS011;51043;52.406;9.690;2023-04-01T22:58:37;10.30;;;5.67;;
64633;SDS011;51043;52.406;9.690;2023-04-01T23:01:12;9.37;;;5.90;;
64633;SDS011;51043;52.406;9.690;2023-04-01T23:03:44;15.23;;;6.20;;
64633;SDS011;51043;52.406;9.690;2023-04-01T23:06:22;16.03;;;7.00;;
64633;SDS011;51043;52.406;9.690;2023-04-01T23:09:07;13.87;;;6.77;;
64633;SDS011;51043;52.406;9.690;2023-04-01T23:11:45;15.73;;;6.77;;
64633;SDS011;51043;52.406;9.690;2023-04-01T23:22:12;16.80;;;6.63;;
64633;SDS011;51043;52.406;9.690;2023-04-01T23:27:33;12.53;;;5.83;;
64633;SDS011;51043;52.406;9.690;2023-04-01T23:33:21;10.90;;;5.70;;
64633;SDS011;51043;52.406;9.690;2023-04-01T23:35:51;14.53;;;6.23;;
64633;SDS011;51043;52.406;9.690;2023-04-01T23:38:23;13.03;;;5.77;;
64633;SDS011;51043;52.406;9.690;2023-04-01T23:40:52;17.40;;;6.30;;
64633;SDS011;51043;52.406;9.690;2023-04-01T23:43:25;10.50;;;5.70;;
64633;SDS011;51043;52.406;9.690;2023-04-01T23:46:01;13.03;;;6.10;;
64633;SDS011;51043;52.406;9.690;2023-04-01T23:48:33;10.53;;;5.27;;
64633;SDS011;51043;52.406;9.690;2023-04-01T23:51:04;12.57;;;5.57;;
64633;SDS011;51043;52.406;9.690;2023-04-01T23:53:43;8.23;;;4.73;;
64633;SDS011;51043;52.406;9.690;2023-04-01T23:56:12;7.17;;;4.70;;
64633;SDS011;51043;52.406;9.690;2023-04-01T23:58:48;11.67;;;4.53;;
